Temp: 20.1°C   Baro: 1014.8mb
  Wind: 8.1mph   Dir: SW (236°)
  Rain: 0.0mm (0.0mm/hr)
  Solar: 765W/m2  Hum: 68%
 
Bath Spa Weather Station Historical Data
Daily Summary for June 5, 2019 Units:  English    Metric   Both
Daily Weekly Monthly Yearly Custom
  High: Low: Average:
Temperature: 71.1 °F 59.7 °F 64.6 °F
Dew Point: 59.2 °F 53.2 °F 56.6 °F
Humidity: 91% 59.7% 76%
Wind Speed: 11.5mph 0mph 5.1mph
Wind Gust: 22mph - -
Wind- - WSW
Pressure: 29.85 in 29.77 in -
Precipitation: 0.05 in    
Historical Graphs
 
 
Tabular Data for June 5, 2019
Time Temperature Dew Point Pressure Wind Wind Speed Wind Gust Humidity Rainfall Rate (Hourly) solar
00:04 60.8 °F 56.3 °F 29.85 in SSW 3 mph 7 mph 85% 0.00 in 0 W/m2
00:09 60.8 °F 56.3 °F 29.85 in SW 3 mph 7 mph 85% 0.00 in 0 W/m2
00:14 60.8 °F 56.3 °F 29.85 in SW 2.1 mph 7 mph 85% 0.00 in 0 W/m2
00:19 60.9 °F 56.4 °F 29.85 in SSW 3.2 mph 7 mph 85% 0.00 in 0 W/m2
00:24 61 °F 56.6 °F 29.85 in WSW 2.8 mph 6 mph 85.4% 0.00 in 0 W/m2
00:29 61 °F 56.8 °F 29.85 in SW 1.5 mph 6 mph 86% 0.00 in 0 W/m2
00:34 61.2 °F 57 °F 29.84 in SSW 2.5 mph 6 mph 86% 0.00 in 0 W/m2
00:39 61.2 °F 57 °F 29.84 in South 1.5 mph 5 mph 86% 0.00 in 0 W/m2
00:44 61.2 °F 57 °F 29.84 in South 4.3 mph 7 mph 86% 0.00 in 0 W/m2
00:49 61.1 °F 56.9 °F 29.84 in South 2.9 mph 7 mph 86% 0.00 in 0 W/m2
00:54 61 °F 56.8 °F 29.84 in South 0.4 mph 3 mph 86% 0.00 in 0 W/m2
00:59 61.1 °F 56.9 °F 29.84 in South 2.1 mph 7 mph 86% 0.00 in 0 W/m2
01:04 61.2 °F 57 °F 29.84 in SSW 0.7 mph 7 mph 86% 0.00 in 0 W/m2
01:09 61.2 °F 57 °F 29.83 in SSW 1.5 mph 6 mph 86% 0.00 in 0 W/m2
01:14 61.3 °F 57.2 °F 29.83 in Calm   4 mph 86% 0.00 in 0 W/m2
01:19 61.3 °F 57.2 °F 29.83 in SSW 0.8 mph 5 mph 86% 0.00 in 0 W/m2
01:24 61.3 °F 57.2 °F 29.83 in SSW 0.6 mph 5 mph 86% 0.00 in 0 W/m2
01:29 61.3 °F 57.2 °F 29.83 in SSW 0.2 mph 3 mph 86% 0.00 in 0 W/m2
01:34 61.3 °F 57.2 °F 29.83 in SSW 1.6 mph 5 mph 86% 0.00 in 0 W/m2
01:39 61.3 °F 57.2 °F 29.83 in SSW 0.2 mph 5 mph 86% 0.00 in 0 W/m2
01:44 61.4 °F 57.3 °F 29.83 in SSW 2.7 mph 9 mph 86% 0.00 in 0 W/m2
01:49 61.5 °F 57.4 °F 29.82 in SW 2 mph 9 mph 86% 0.00 in 0 W/m2
01:54 61.5 °F 57.4 °F 29.82 in SW 2.2 mph 5 mph 86% 0.00 in 0 W/m2
01:59 61.6 °F 57.4 °F 29.82 in SW 2.4 mph 6 mph 86% 0.00 in 0 W/m2
02:04 61.7 °F 57.4 °F 29.82 in SSW 3 mph 7 mph 86% 0.00 in 0 W/m2
02:09 61.7 °F 57.4 °F 29.83 in SW 2 mph 7 mph 86% 0.00 in 0 W/m2
02:14 61.7 °F 57.4 °F 29.83 in SSW 2.9 mph 7 mph 86% 0.00 in 0 W/m2
02:19 61.7 °F 57.4 °F 29.82 in SSW 1.1 mph 7 mph 86% 0.00 in 0 W/m2
02:24 61.7 °F 57.7 °F 29.82 in SSW 1.7 mph 6 mph 86.8% 0.00 in 0 W/m2
02:29 61.7 °F 57.7 °F 29.82 in SSW 2.4 mph 7 mph 87% 0.00 in 0 W/m2
02:34 61.6 °F 57.6 °F 29.82 in SSW 2.2 mph 7 mph 87% 0.00 in 0 W/m2
02:39 61.5 °F 57.6 °F 29.81 in SW 2.6 mph 6 mph 87.1% 0.00 in 0 W/m2
02:44 61.5 °F 57.9 °F 29.81 in SSW 2.1 mph 7 mph 88% 0.00 in 0 W/m2
02:49 61.5 °F 57.9 °F 29.81 in SSW 2.5 mph 6 mph 88% 0.00 in 0 W/m2
02:54 61.5 °F 57.9 °F 29.81 in SSW 3.3 mph 8 mph 88% 0.00 in 0 W/m2
02:59 61.5 °F 57.9 °F 29.80 in SW 3.9 mph 11 mph 88% 0.00 in 0 W/m2
03:04 61.5 °F 57.9 °F 29.80 in SW 2.9 mph 11 mph 88% 0.00 in 0 W/m2
03:09 61.5 °F 57.8 °F 29.80 in SW 5.3 mph 13 mph 87.7% 0.00 in 0 W/m2
03:14 61.6 °F 57.6 °F 29.80 in SW 4.5 mph 11 mph 87% 0.00 in 0 W/m2
03:19 61.6 °F 57.7 °F 29.80 in SSW 2.4 mph 10 mph 87% 0.00 in 0 W/m2
03:24 61.7 °F 57.7 °F 29.80 in SW 5.1 mph 9 mph 87% 0.00 in 0 W/m2
03:29 61.7 °F 57.7 °F 29.79 in SSW 4.8 mph 10 mph 87% 0.00 in 0 W/m2
03:34 61.7 °F 57.7 °F 29.79 in SSW 5.6 mph 12 mph 87% 0.00 in 0 W/m2
03:39 61.7 °F 57.6 °F 29.79 in SW 4.8 mph 11 mph 86.6% 0.00 in 0 W/m2
03:44 61.7 °F 57.5 °F 29.79 in SSW 5.8 mph 12 mph 86.1% 0.00 in 0 W/m2
03:49 61.7 °F 57.5 °F 29.79 in SW 5.1 mph 12 mph 86.4% 0.00 in 0 W/m2
03:54 61.7 °F 57.7 °F 29.79 in SSW 2.8 mph 8 mph 87% 0.00 in 0 W/m2
03:59 61.7 °F 57.7 °F 29.78 in SSW 4.6 mph 10 mph 87% 0.00 in 0 W/m2
04:04 61.7 °F 57.7 °F 29.78 in South 2.1 mph 7 mph 87% 0.00 in 0 W/m2
04:09 61.7 °F 57.7 °F 29.78 in SSW 4.3 mph 10 mph 87% 0.01 in 0 W/m2
04:14 61.7 °F 57.7 °F 29.78 in SSW 3.6 mph 8 mph 87% 0.01 in 0 W/m2
04:19 61.7 °F 57.8 °F 29.78 in SSW 4.4 mph 9 mph 87.3% 0.01 in 0 W/m2
04:24 61.7 °F 58.1 °F 29.78 in SW 6.1 mph 12 mph 88% 0.01 in 0 W/m2
04:29 61.7 °F 58.1 °F 29.78 in SSW 6 mph 14 mph 88% 0.01 in 0 W/m2
04:34 61.7 °F 58.1 °F 29.78 in SSW 5.6 mph 14 mph 88% 0.01 in 0 W/m2
04:39 61.7 °F 58.1 °F 29.78 in SSW 4.6 mph 13 mph 88% 0.01 in 0 W/m2
04:44 61.7 °F 58.1 °F 29.78 in SW 5.2 mph 13 mph 88% 0.01 in 0 W/m2
04:49 61.7 °F 58.1 °F 29.78 in SW 6.4 mph 12 mph 88% 0.01 in 0 W/m2
04:54 61.7 °F 58.3 °F 29.78 in SW 5.6 mph 9 mph 88.6% 0.01 in 0 W/m2
04:59 61.7 °F 58.5 °F 29.78 in SW 5.8 mph 12 mph 89% 0.01 in 0 W/m2
05:04 61.8 °F 58.6 °F 29.78 in SW 4.1 mph 9 mph 89% 0.01 in 0 W/m2
05:09 61.7 °F 58.5 °F 29.78 in SW 5.7 mph 11 mph 89% 0.01 in 0 W/m2
05:14 61.7 °F 58.5 °F 29.78 in SW 6.7 mph 12 mph 89% 0.00 in 0 W/m2
05:19 61.7 °F 58.5 °F 29.77 in SW 5 mph 12 mph 89% 0.00 in 0 W/m2
05:24 61.7 °F 58.5 °F 29.77 in SW 6.3 mph 11 mph 89% 0.00 in 0 W/m2
05:29 61.7 °F 58.6 °F 29.77 in SW 4.2 mph 11 mph 89.5% 0.00 in 0 W/m2
05:34 61.7 °F 58.8 °F 29.77 in SSW 5.4 mph 11 mph 90% 0.00 in 0 W/m2
05:39 61.7 °F 58.8 °F 29.77 in SW 5.5 mph 10 mph 90% 0.00 in 0 W/m2
05:44 61.8 °F 58.9 °F 29.78 in SW 3.8 mph 9 mph 90% 0.00 in 0 W/m2
05:49 61.9 °F 59 °F 29.78 in SSW 4.2 mph 11 mph 90% 0.00 in 0 W/m2
05:54 62.1 °F 59.2 °F 29.78 in SW 4.2 mph 9 mph 90% 0.00 in 0 W/m2
05:59 62.1 °F 59.2 °F 29.78 in SW 3.9 mph 9 mph 90% 0.00 in 7 W/m2
06:04 62.1 °F 59.2 °F 29.77 in SW 5.1 mph 10 mph 90% 0.00 in 7 W/m2
06:09 62.1 °F 59.2 °F 29.78 in SW 5.3 mph 10 mph 90% 0.00 in 7 W/m2
06:14 62.1 °F 59.2 °F 29.78 in SW 4 mph 10 mph 90% 0.00 in 9 W/m2
06:19 62 °F 59.1 °F 29.78 in SW 4.8 mph 9 mph 90.4% 0.00 in 9 W/m2
06:24 61.8 °F 59.1 °F 29.78 in SW 4.6 mph 10 mph 91% 0.01 in 7 W/m2
06:29 61.7 °F 59 °F 29.78 in SW 3.9 mph 10 mph 91% 0.03 in 7 W/m2
06:34 61.6 °F 58.9 °F 29.78 in WSW 7.9 mph 15 mph 91% 0.04 in 12 W/m2
06:39 61.1 °F 58.4 °F 29.78 in West 6.2 mph 14 mph 91% 0.04 in 23 W/m2
06:44 60.7 °F 58 °F 29.79 in West 5.1 mph 10 mph 91% 0.04 in 30 W/m2
06:49 60.4 °F 57.7 °F 29.79 in West 6 mph 11 mph 91% 0.04 in 35 W/m2
06:54 60.2 °F 57.5 °F 29.79 in West 4.4 mph 11 mph 91% 0.04 in 44 W/m2
06:59 60 °F 57.3 °F 29.79 in WNW 5.2 mph 10 mph 91% 0.04 in 72 W/m2
07:04 59.9 °F 57.2 °F 29.79 in WNW 3.5 mph 10 mph 91% 0.04 in 72 W/m2
07:09 59.9 °F 57.2 °F 29.79 in WNW 3.4 mph 8 mph 91% 0.04 in 56 W/m2
07:14 59.9 °F 57.2 °F 29.80 in WNW 4.6 mph 9 mph 91% 0.04 in 54 W/m2
07:19 59.7 °F 57 °F 29.79 in WNW 5.5 mph 10 mph 90.6% 0.04 in 54 W/m2
07:24 59.7 °F 56.8 °F 29.80 in WNW 5.9 mph 9 mph 90.2% 0.03 in 54 W/m2
07:29 59.7 °F 56.8 °F 29.80 in WNW 4 mph 9 mph 90% 0.03 in 62 W/m2
07:34 59.7 °F 56.8 °F 29.80 in West 3.8 mph 7 mph 90% 0.02 in 100 W/m2
07:39 59.7 °F 56.8 °F 29.80 in West 4.4 mph 8 mph 90% 0.01 in 134 W/m2
07:44 59.9 °F 57 °F 29.80 in WNW 3.3 mph 8 mph 90% 0.01 in 142 W/m2
07:49 60 °F 57.1 °F 29.80 in West 3.3 mph 7 mph 90% 0.01 in 146 W/m2
07:54 60 °F 57.1 °F 29.80 in West 4.6 mph 9 mph 90% 0.01 in 93 W/m2
07:59 60.3 °F 57.4 °F 29.80 in WNW 1.4 mph 5 mph 90% 0.00 in 225 W/m2
08:04 60.4 °F 57.5 °F 29.80 in West 4.9 mph 10 mph 89.7% 0.00 in 227 W/m2
08:09 60.7 °F 57.5 °F 29.80 in West 4.9 mph 10 mph 89% 0.00 in 232 W/m2
08:14 61.1 °F 57.8 °F 29.80 in WNW 3.6 mph 9 mph 88.9% 0.00 in 281 W/m2
08:19 61.2 °F 57.6 °F 29.80 in NW 5.2 mph 10 mph 87.8% 0.00 in 329 W/m2
08:24 61.4 °F 57.4 °F 29.80 in WNW 4.5 mph 10 mph 86.6% 0.00 in 329 W/m2
08:29 61.7 °F 57.4 °F 29.80 in WNW 4.5 mph 9 mph 85.6% 0.00 in 325 W/m2
08:34 61.8 °F 57.2 °F 29.80 in WNW 3.8 mph 8 mph 84.7% 0.00 in 315 W/m2
08:39 62.2 °F 57.4 °F 29.80 in West 4.2 mph 8 mph 84.2% 0.00 in 339 W/m2
08:44 62.3 °F 56.8 °F 29.80 in West 5.3 mph 10 mph 82.4% 0.00 in 373 W/m2
08:49 62.7 °F 56.7 °F 29.80 in WNW 3.6 mph 9 mph 80.9% 0.00 in 540 W/m2
08:54 63.1 °F 57 °F 29.80 in WNW 3.1 mph 10 mph 80.3% 0.00 in 540 W/m2
08:59 63.1 °F 56.5 °F 29.80 in WNW 7.1 mph 11 mph 79.4% 0.00 in 206 W/m2
09:04 62.9 °F 56.2 °F 29.80 in WNW 4.6 mph 9 mph 79% 0.00 in 223 W/m2
09:09 62.8 °F 55.8 °F 29.80 in WNW 4.4 mph 9 mph 78.1% 0.00 in 221 W/m2
09:14 62.9 °F 55.6 °F 29.80 in WNW 4.6 mph 11 mph 77% 0.00 in 527 W/m2
09:19 63 °F 55.3 °F 29.80 in WNW 6.8 mph 13 mph 76.1% 0.00 in 355 W/m2
09:24 63 °F 55.2 °F 29.80 in NW 5.5 mph 13 mph 76.1% 0.00 in 478 W/m2
09:29 63.1 °F 55.6 °F 29.80 in West 6.4 mph 12 mph 76.6% 0.00 in 471 W/m2
09:34 63.1 °F 55.3 °F 29.80 in WNW 6.6 mph 12 mph 75.8% 0.00 in 492 W/m2
09:39 63.4 °F 55.7 °F 29.80 in WNW 4.4 mph 11 mph 76% 0.00 in 589 W/m2
09:44 64.2 °F 56.4 °F 29.80 in West 6.3 mph 11 mph 75.7% 0.00 in 682 W/m2
09:49 64.9 °F 56.7 °F 29.80 in West 5.4 mph 12 mph 74.6% 0.00 in 682 W/m2
09:54 65 °F 56.3 °F 29.80 in West 5 mph 9 mph 73.5% 0.00 in 538 W/m2
09:59 64.5 °F 56.2 °F 29.80 in West 7.3 mph 11 mph 74.5% 0.00 in 547 W/m2
10:04 64.7 °F 56.3 °F 29.80 in WSW 6.1 mph 11 mph 74.2% 0.00 in 585 W/m2
10:09 65 °F 56.3 °F 29.80 in West 7.1 mph 12 mph 73.5% 0.00 in 715 W/m2
10:14 65.8 °F 57 °F 29.80 in WSW 6.4 mph 17 mph 73.1% 0.00 in 780 W/m2
10:19 65.8 °F 55.8 °F 29.80 in West 8.2 mph 17 mph 70% 0.00 in 780 W/m2
10:24 65.4 °F 55.9 °F 29.81 in West 7.6 mph 16 mph 71.3% 0.00 in 322 W/m2
10:29 65.3 °F 55.7 °F 29.81 in West 8.5 mph 16 mph 71.3% 0.00 in 563 W/m2
10:34 65.6 °F 55.7 °F 29.81 in West 8.2 mph 16 mph 70.6% 0.00 in 701 W/m2
10:39 65.9 °F 55.9 °F 29.81 in WSW 5 mph 12 mph 70.2% 0.00 in 701 W/m2
10:44 66.2 °F 55.7 °F 29.81 in WSW 9.9 mph 18 mph 69% 0.00 in 722 W/m2
10:49 66.5 °F 55.2 °F 29.80 in West 8.1 mph 18 mph 67.1% 0.00 in 745 W/m2
10:54 67 °F 55.6 °F 29.80 in WSW 8.3 mph 15 mph 66.9% 0.00 in 875 W/m2
10:59 67 °F 55.6 °F 29.80 in WNW 7 mph 13 mph 66.7% 0.00 in 875 W/m2
11:04 66.3 °F 54.6 °F 29.80 in WNW 8.2 mph 15 mph 65.8% 0.00 in 374 W/m2
11:09 65.8 °F 54.4 °F 29.80 in WNW 9.1 mph 15 mph 66.8% 0.00 in 374 W/m2
11:14 65.7 °F 54.7 °F 29.80 in WNW 8.1 mph 15 mph 67.6% 0.00 in 364 W/m2
11:19 66.3 °F 55.2 °F 29.80 in WSW 7.4 mph 15 mph 67.6% 0.00 in 466 W/m2
11:24 66.6 °F 55.1 °F 29.80 in WSW 9.1 mph 15 mph 66.3% 0.00 in 951 W/m2
11:29 67.2 °F 55.1 °F 29.80 in WSW 7.8 mph 15 mph 65.4% 0.00 in 882 W/m2
11:34 67.3 °F 54.8 °F 29.80 in WNW 7.2 mph 13 mph 64.3% 0.00 in 817 W/m2
11:39 67 °F 54.8 °F 29.80 in West 7.4 mph 13 mph 64.9% 0.00 in 573 W/m2
11:44 67.5 °F 54.7 °F 29.80 in West 5 mph 11 mph 63.6% 0.00 in 861 W/m2
11:49 68.3 °F 55.4 °F 29.80 in WSW 7.7 mph 14 mph 63.5% 0.00 in 861 W/m2
11:54 67.3 °F 55 °F 29.80 in WSW 9.4 mph 16 mph 64.6% 0.00 in 396 W/m2
11:59 66.8 °F 55.4 °F 29.80 in West 6.9 mph 16 mph 66.7% 0.00 in 545 W/m2
12:04 67.3 °F 55.8 °F 29.80 in WSW 6.3 mph 13 mph 66.5% 0.00 in 933 W/m2
12:09 67.6 °F 56.1 °F 29.80 in West 5.6 mph 13 mph 66.7% 0.00 in 933 W/m2
12:14 68.3 °F 56 °F 29.80 in WSW 8.2 mph 22 mph 65% 0.00 in 828 W/m2
12:19 68.7 °F 54.7 °F 29.80 in West 6.5 mph 22 mph 61% 0.00 in 782 W/m2
12:24 68.9 °F 54.4 °F 29.80 in WSW 7.4 mph 16 mph 59.8% 0.00 in 779 W/m2
12:29 69.1 °F 54.6 °F 29.80 in West 8.4 mph 17 mph 60% 0.00 in 872 W/m2
12:34 69.1 °F 55.4 °F 29.80 in WNW 6.7 mph 15 mph 61.6% 0.00 in 879 W/m2
12:39 68.7 °F 55.7 °F 29.80 in WNW 7 mph 15 mph 63.1% 0.00 in 1104 W/m2
12:44 68.6 °F 56.2 °F 29.80 in West 7.3 mph 15 mph 64.5% 0.00 in 1104 W/m2
12:49 68.6 °F 56.4 °F 29.80 in WNW 9 mph 16 mph 65.2% 0.00 in 1002 W/m2
12:54 68.3 °F 56.7 °F 29.80 in WNW 8.3 mph 15 mph 66.6% 0.00 in 1002 W/m2
12:59 68.6 °F 57 °F 29.80 in West 9 mph 15 mph 66.5% 0.00 in 898 W/m2
13:04 68.8 °F 57.4 °F 29.80 in WNW 7.5 mph 11 mph 66.9% 0.00 in 904 W/m2
13:09 68.7 °F 57.1 °F 29.80 in WSW 8.9 mph 14 mph 66.7% 0.00 in 863 W/m2
13:14 68.9 °F 57.3 °F 29.80 in WSW 6.9 mph 12 mph 66.5% 0.00 in 909 W/m2
13:19 69.3 °F 57.5 °F 29.80 in West 8.1 mph 13 mph 66.4% 0.00 in 916 W/m2
13:24 69.6 °F 57.4 °F 29.80 in West 8.9 mph 15 mph 65% 0.00 in 904 W/m2
13:29 69.7 °F 56.9 °F 29.80 in WNW 9.8 mph 17 mph 64% 0.00 in 879 W/m2
13:34 69.8 °F 56.8 °F 29.80 in WNW 7.6 mph 17 mph 63.4% 0.00 in 875 W/m2
13:39 70 °F 55.8 °F 29.80 in West 9.1 mph 17 mph 60.8% 0.00 in 879 W/m2
13:44 70.2 °F 55.6 °F 29.80 in West 8.8 mph 18 mph 59.7% 0.00 in 942 W/m2
13:49 69.8 °F 55.5 °F 29.80 in WNW 8 mph 16 mph 60.3% 0.00 in 512 W/m2
13:54 68.9 °F 55.6 °F 29.80 in West 9.7 mph 18 mph 62.6% 0.00 in 413 W/m2
13:59 68.8 °F 56.4 °F 29.80 in West 5.6 mph 17 mph 64.5% 0.00 in 417 W/m2
14:04 69.1 °F 56.3 °F 29.80 in West 6.7 mph 14 mph 63.8% 0.00 in 362 W/m2
14:09 68.9 °F 56.4 °F 29.80 in WNW 8.1 mph 15 mph 64.3% 0.00 in 380 W/m2
14:14 68.6 °F 56.2 °F 29.80 in West 8.7 mph 16 mph 64.4% 0.00 in 582 W/m2
14:19 69.1 °F 56.9 °F 29.80 in West 6.1 mph 12 mph 65% 0.00 in 582 W/m2
14:24 69.1 °F 56.9 °F 29.80 in West 9.9 mph 17 mph 65.3% 0.00 in 410 W/m2
14:29 68.6 °F 56.8 °F 29.80 in WSW 8.3 mph 15 mph 66.2% 0.00 in 448 W/m2
14:34 68.8 °F 57.3 °F 29.80 in WSW 7 mph 16 mph 66.7% 0.00 in 520 W/m2
14:39 69.9 °F 58.1 °F 29.80 in WSW 3.5 mph 11 mph 66.2% 0.00 in 520 W/m2
14:44 69.9 °F 57.8 °F 29.80 in WNW 7.9 mph 13 mph 65.3% 0.00 in 914 W/m2
14:49 69.9 °F 57.8 °F 29.80 in West 7.1 mph 15 mph 65.3% 0.00 in 872 W/m2
14:54 70.7 °F 57.8 °F 29.80 in WSW 7.4 mph 13 mph 63.6% 0.00 in 895 W/m2
14:59 70.5 °F 57.7 °F 29.80 in WNW 7.6 mph 13 mph 63.8% 0.00 in 895 W/m2
15:04 70.7 °F 58.3 °F 29.80 in West 6.8 mph 12 mph 64.9% 0.00 in 914 W/m2
15:09 71.1 °F 58 °F 29.80 in WNW 7.6 mph 13 mph 63.3% 0.00 in 914 W/m2
15:14 70.5 °F 56.8 °F 29.80 in WNW 11.2 mph 17 mph 61.9% 0.00 in 942 W/m2
15:19 70 °F 56.3 °F 29.80 in West 8.2 mph 14 mph 62.1% 0.00 in 782 W/m2
15:24 70.5 °F 56.9 °F 29.80 in WNW 7.3 mph 13 mph 62.2% 0.00 in 868 W/m2
15:29 70.6 °F 56.6 °F 29.80 in WNW 7.2 mph 13 mph 61% 0.00 in 793 W/m2
15:34 70.8 °F 56.7 °F 29.80 in West 7.6 mph 13 mph 61% 0.00 in 824 W/m2
15:39 71 °F 56.8 °F 29.80 in West 7.1 mph 17 mph 61% 0.00 in 831 W/m2
15:44 71 °F 56.9 °F 29.80 in WSW 5.7 mph 12 mph 61% 0.00 in 735 W/m2
15:49 70.6 °F 56.8 °F 29.80 in West 4.5 mph 11 mph 61.4% 0.00 in 283 W/m2
15:54 70.3 °F 57 °F 29.80 in West 7.8 mph 16 mph 62.7% 0.00 in 397 W/m2
15:59 70 °F 56.7 °F 29.80 in West 6.9 mph 16 mph 62.8% 0.00 in 408 W/m2
16:04 70.4 °F 56.5 °F 29.80 in West 9.5 mph 16 mph 61.3% 0.00 in 814 W/m2
16:09 71.1 °F 56.8 °F 29.80 in WNW 9 mph 14 mph 60.5% 0.00 in 726 W/m2
16:14 70.2 °F 55.9 °F 29.80 in WNW 7.9 mph 14 mph 60.8% 0.00 in 237 W/m2
16:19 69.7 °F 56.6 °F 29.80 in WNW 8.1 mph 15 mph 63% 0.00 in 436 W/m2
16:24 69.6 °F 56.5 °F 29.80 in West 7.7 mph 15 mph 63% 0.00 in 436 W/m2
16:29 69.4 °F 56.6 °F 29.80 in WNW 10.2 mph 17 mph 63.9% 0.00 in 287 W/m2
16:34 69.3 °F 56.5 °F 29.80 in West 6.1 mph 17 mph 64% 0.00 in 381 W/m2
16:39 69.5 °F 56.8 °F 29.80 in WNW 3.5 mph 10 mph 64% 0.00 in 332 W/m2
16:44 69.7 °F 57.1 °F 29.80 in West 5.7 mph 11 mph 64.3% 0.00 in 274 W/m2
16:49 69.7 °F 57.1 °F 29.80 in West 6 mph 11 mph 64.3% 0.00 in 239 W/m2
16:54 69.2 °F 56.5 °F 29.80 in West 8.7 mph 15 mph 64% 0.00 in 202 W/m2
16:59 68.9 °F 56.5 °F 29.80 in West 8.3 mph 15 mph 64.4% 0.00 in 156 W/m2
17:04 68.7 °F 56.5 °F 29.79 in West 5.8 mph 13 mph 65.2% 0.00 in 153 W/m2
17:09 68.9 °F 57 °F 29.79 in West 5.1 mph 10 mph 66% 0.00 in 221 W/m2
17:14 69.2 °F 57.1 °F 29.79 in WSW 5.3 mph 13 mph 65.5% 0.00 in 221 W/m2
17:19 68.9 °F 56.4 °F 29.79 in West 8.4 mph 16 mph 64.3% 0.00 in 181 W/m2
17:24 68.7 °F 56.5 °F 29.79 in WSW 6.6 mph 12 mph 65% 0.00 in 171 W/m2
17:29 68.7 °F 56.4 °F 29.79 in West 6.2 mph 14 mph 64.8% 0.00 in 195 W/m2
17:34 68.7 °F 56.3 °F 29.79 in West 6.3 mph 13 mph 64.4% 0.00 in 281 W/m2
17:39 68.7 °F 56.1 °F 29.79 in WNW 6.9 mph 11 mph 64% 0.00 in 206 W/m2
17:44 68.6 °F 56.1 °F 29.79 in West 5.7 mph 11 mph 64.2% 0.00 in 142 W/m2
17:49 68.7 °F 56.5 °F 29.79 in WSW 4.3 mph 9 mph 65% 0.00 in 146 W/m2
17:54 68.8 °F 56.9 °F 29.80 in WSW 5.5 mph 11 mph 66% 0.00 in 130 W/m2
17:59 68.6 °F 56.7 °F 29.79 in West 7 mph 11 mph 65.9% 0.00 in 142 W/m2
18:04 68.5 °F 56.6 °F 29.79 in WSW 3.3 mph 11 mph 65.9% 0.00 in 269 W/m2
18:09 68.9 °F 56.7 °F 29.79 in WSW 6.6 mph 12 mph 65.3% 0.00 in 485 W/m2
18:14 69.7 °F 56.5 °F 29.79 in WSW 9.1 mph 17 mph 63% 0.00 in 462 W/m2
18:19 69.9 °F 56.3 °F 29.79 in West 8.7 mph 17 mph 62.2% 0.00 in 425 W/m2
18:24 69.4 °F 55.9 °F 29.79 in WNW 7 mph 15 mph 62.1% 0.00 in 385 W/m2
18:29 69.1 °F 55.9 °F 29.79 in West 8.4 mph 12 mph 62.8% 0.00 in 367 W/m2
18:34 69.2 °F 56.1 °F 29.79 in West 7.7 mph 13 mph 63.2% 0.00 in 367 W/m2
18:39 69.3 °F 56 °F 29.79 in WSW 6.7 mph 13 mph 62.6% 0.00 in 364 W/m2
18:44 69.2 °F 56.1 °F 29.79 in West 5.7 mph 13 mph 63.2% 0.00 in 336 W/m2
18:49 69 °F 56.3 °F 29.79 in West 6 mph 12 mph 63.8% 0.00 in 204 W/m2
18:54 68.9 °F 56 °F 29.79 in WSW 6.7 mph 12 mph 63.5% 0.00 in 265 W/m2
18:59 68.8 °F 56.4 °F 29.79 in West 5.7 mph 12 mph 64.7% 0.00 in 272 W/m2
19:04 69.1 °F 56.8 °F 29.79 in WNW 4.8 mph 8 mph 65% 0.00 in 287 W/m2
19:09 68.9 °F 56.7 °F 29.79 in WNW 5.8 mph 11 mph 65% 0.00 in 169 W/m2
19:14 68.5 °F 56.7 °F 29.79 in WNW 6.2 mph 12 mph 66.2% 0.00 in 132 W/m2
19:19 67.8 °F 56.5 °F 29.79 in WNW 6.4 mph 12 mph 67% 0.00 in 91 W/m2
19:24 67.3 °F 56.3 °F 29.79 in WNW 5.8 mph 11 mph 68% 0.00 in 70 W/m2
19:29 67 °F 56 °F 29.79 in WNW 5.9 mph 10 mph 68% 0.00 in 60 W/m2
19:34 66.7 °F 56 °F 29.79 in West 6.3 mph 10 mph 68.3% 0.00 in 54 W/m2
19:39 66.7 °F 56.2 °F 29.79 in West 5.4 mph 10 mph 69% 0.00 in 44 W/m2
19:44 66.6 °F 56.1 °F 29.79 in West 5.3 mph 9 mph 69.1% 0.00 in 35 W/m2
19:49 66.3 °F 56.2 °F 29.79 in WNW 7.6 mph 13 mph 70% 0.00 in 23 W/m2
19:54 66 °F 55.9 °F 29.80 in West 6.8 mph 16 mph 70% 0.00 in 12 W/m2
19:59 65.4 °F 55.8 °F 29.80 in WNW 11.5 mph 18 mph 71.1% 0.00 in 9 W/m2
20:04 64.2 °F 55.4 °F 29.80 in WNW 8.5 mph 15 mph 73% 0.00 in 12 W/m2
20:09 63.3 °F 55 °F 29.80 in NW 7.6 mph 11 mph 74.3% 0.00 in 12 W/m2
20:14 62.9 °F 55.2 °F 29.80 in NW 5.4 mph 13 mph 76.1% 0.00 in 11 W/m2
20:19 62.6 °F 55.5 °F 29.80 in NW 3.6 mph 9 mph 77.8% 0.00 in 12 W/m2
20:24 62.5 °F 55.7 °F 29.80 in WNW 3 mph 8 mph 78.6% 0.00 in 11 W/m2
20:29 62.4 °F 55.8 °F 29.80 in NW 1.8 mph 6 mph 79.1% 0.00 in 7 W/m2
20:34 62.3 °F 56 °F 29.80 in WNW 2.2 mph 5 mph 80% 0.00 in 5 W/m2
20:39 62.2 °F 56.1 °F 29.80 in WNW 1.8 mph 5 mph 80.7% 0.00 in 5 W/m2
20:44 62.1 °F 56.3 °F 29.80 in WNW 0.3 mph 3 mph 81.2% 0.00 in 0 W/m2
20:49 62.2 °F 56.7 °F 29.80 in WNW 0.9 mph 3 mph 82% 0.00 in 0 W/m2
20:54 62.2 °F 56.7 °F 29.80 in WNW 0.8 mph 4 mph 82% 0.00 in 0 W/m2
20:59 62.2 °F 56.7 °F 29.80 in WNW 1.7 mph 5 mph 82% 0.00 in 0 W/m2
21:04 62.2 °F 56.7 °F 29.80 in WNW 1.6 mph 5 mph 82% 0.00 in 0 W/m2
21:09 62.2 °F 56.7 °F 29.81 in WNW 0.6 mph 3 mph 82% 0.00 in 0 W/m2
21:14 62.2 °F 56.7 °F 29.81 in WNW 0.5 mph 3 mph 82% 0.00 in 0 W/m2
21:19 62.2 °F 56.7 °F 29.81 in WNW 0.6 mph 3 mph 82% 0.00 in 0 W/m2
21:24 62.2 °F 56.7 °F 29.81 in WNW 1.5 mph 5 mph 81.9% 0.00 in 0 W/m2
21:29 62.4 °F 56.5 °F 29.81 in West 2.2 mph 6 mph 81% 0.00 in 0 W/m2
21:34 62.5 °F 56.5 °F 29.81 in West 2.4 mph 6 mph 80.7% 0.00 in 0 W/m2
21:39 62.6 °F 56.3 °F 29.81 in West 1.7 mph 6 mph 80% 0.00 in 0 W/m2
21:44 62.6 °F 56.1 °F 29.81 in West 2.5 mph 5 mph 79.5% 0.00 in 0 W/m2
21:49 62.6 °F 55.9 °F 29.81 in West 2.4 mph 5 mph 79% 0.00 in 0 W/m2
21:54 62.6 °F 55.9 °F 29.81 in WSW 2.9 mph 8 mph 79% 0.00 in 0 W/m2
21:59 62.6 °F 55.8 °F 29.81 in West 4.2 mph 8 mph 78.6% 0.00 in 0 W/m2
22:04 62.8 °F 55.8 °F 29.81 in West 2.5 mph 6 mph 78% 0.00 in 0 W/m2
22:09 62.8 °F 55.8 °F 29.81 in West 2.1 mph 6 mph 78% 0.00 in 0 W/m2
22:14 62.6 °F 55.5 °F 29.81 in West 2 mph 6 mph 77.6% 0.00 in 0 W/m2
22:19 62.6 °F 55.2 °F 29.81 in West 1.2 mph 4 mph 77% 0.00 in 0 W/m2
22:24 62.6 °F 55.2 °F 29.81 in West 1.6 mph 4 mph 77% 0.00 in 0 W/m2
22:29 62.6 °F 55 °F 29.81 in West 1.3 mph 3 mph 76.4% 0.00 in 0 W/m2
22:34 62.6 °F 54.9 °F 29.81 in West 2 mph 5 mph 76% 0.00 in 0 W/m2
22:39 62.6 °F 54.6 °F 29.81 in West 1.5 mph 5 mph 75.4% 0.00 in 0 W/m2
22:44 62.4 °F 54.3 °F 29.81 in West 1.8 mph 5 mph 75% 0.00 in 0 W/m2
22:49 62.4 °F 54.1 °F 29.81 in West 2.9 mph 7 mph 74.5% 0.00 in 0 W/m2
22:54 62.4 °F 53.7 °F 29.81 in WSW 3.5 mph 7 mph 73.3% 0.00 in 0 W/m2
22:59 62.5 °F 53.5 °F 29.81 in WSW 3.1 mph 7 mph 72.4% 0.00 in 0 W/m2
23:04 62.7 °F 53.2 °F 29.81 in SW 1.9 mph 7 mph 71.2% 0.00 in 0 W/m2
23:09 62.7 °F 53.5 °F 29.81 in SW 1.4 mph 4 mph 72% 0.00 in 0 W/m2
23:14 62.6 °F 53.8 °F 29.81 in SW 1 mph 4 mph 72.9% 0.00 in 0 W/m2
23:19 62.6 °F 53.8 °F 29.81 in SW 1.1 mph 5 mph 73% 0.00 in 0 W/m2
23:24 62.5 °F 53.8 °F 29.81 in SW 0.7 mph 4 mph 73.5% 0.00 in 0 W/m2
23:29 62.4 °F 53.8 °F 29.81 in SW 0.4 mph 4 mph 73.5% 0.00 in 0 W/m2
23:34 62.4 °F 54 °F 29.81 in SW 2 mph 5 mph 74% 0.00 in 0 W/m2
23:39 62.3 °F 54.3 °F 29.80 in SW 3.2 mph 6 mph 75.1% 0.00 in 0 W/m2
23:44 62.1 °F 54.6 °F 29.80 in SW 1.3 mph 6 mph 76.6% 0.00 in 0 W/m2
23:49 62 °F 54.9 °F 29.81 in SW 2.1 mph 5 mph 78% 0.00 in 0 W/m2
23:54 61.7 °F 55 °F 29.81 in SW 1.7 mph 5 mph 79.1% 0.00 in 0 W/m2
23:59 61.7 °F 55.4 °F 29.80 in SW 1.9 mph 7 mph 80% 0.00 in 0 W/m2
Bath Spa Weather
Compliments of Weather Underground - 2 mb